sensor_id;sensor_type;location;lat;lon;timestamp;noise_LAeq;noise_LA_min;noise_LA_max;noise_LA01;noise_LA95
77729;Laerm;68312;53.502;10.030;2023-05-29T00:00:14;49.85;36.72;85.51;;
77729;Laerm;68312;53.502;10.030;2023-05-29T00:02:40;60.48;36.58;88.52;;
77729;Laerm;68312;53.502;10.030;2023-05-29T00:05:06;41.25;36.42;57.43;;
77729;Laerm;68312;53.502;10.030;2023-05-29T00:07:32;40.80;35.57;54.50;;
77729;Laerm;68312;53.502;10.030;2023-05-29T00:09:58;38.46;35.33;47.04;;
77729;Laerm;68312;53.502;10.030;2023-05-29T00:12:26;39.98;36.83;51.38;;
77729;Laerm;68312;53.502;10.030;2023-05-29T00:14:51;38.64;35.58;47.71;;
77729;Laerm;68312;53.502;10.030;2023-05-29T00:17:17;39.20;36.08;45.28;;
77729;Laerm;68312;53.502;10.030;2023-05-29T00:19:43;40.24;35.96;55.57;;
77729;Laerm;68312;53.502;10.030;2023-05-29T00:22:09;39.22;35.94;50.06;;
77729;Laerm;68312;53.502;10.030;2023-05-29T00:24:34;41.77;37.20;61.59;;
77729;Laerm;68312;53.502;10.030;2023-05-29T00:27:00;39.01;35.27;43.63;;
77729;Laerm;68312;53.502;10.030;2023-05-29T00:29:25;39.61;35.81;48.31;;
77729;Laerm;68312;53.502;10.030;2023-05-29T00:31:51;40.11;36.03;44.69;;
77729;Laerm;68312;53.502;10.030;2023-05-29T00:34:16;38.52;35.59;45.87;;
77729;Laerm;68312;53.502;10.030;2023-05-29T00:36:42;39.77;34.88;46.74;;
77729;Laerm;68312;53.502;10.030;2023-05-29T00:39:07;38.85;35.94;43.17;;
77729;Laerm;68312;53.502;10.030;2023-05-29T00:41:33;39.06;35.80;43.45;;
77729;Laerm;68312;53.502;10.030;2023-05-29T00:43:58;40.62;34.97;59.13;;
77729;Laerm;68312;53.502;10.030;2023-05-29T00:46:24;39.50;36.24;53.78;;
77729;Laerm;68312;53.502;10.030;2023-05-29T00:48:49;40.72;36.99;51.29;;
77729;Laerm;68312;53.502;10.030;2023-05-29T00:51:16;39.06;35.79;45.01;;
77729;Laerm;68312;53.502;10.030;2023-05-29T00:53:50;40.28;36.31;55.74;;
77729;Laerm;68312;53.502;10.030;2023-05-29T00:56:16;40.60;35.64;51.97;;
77729;Laerm;68312;53.502;10.030;2023-05-29T00:58:42;40.62;36.82;54.88;;
77729;Laerm;68312;53.502;10.030;2023-05-29T01:01:09;39.31;34.95;50.19;;
77729;Laerm;68312;53.502;10.030;2023-05-29T01:03:34;40.86;36.79;56.92;;
77729;Laerm;68312;53.502;10.030;2023-05-29T01:06:00;42.88;38.81;64.31;;
77729;Laerm;68312;53.502;10.030;2023-05-29T01:08:26;43.89;37.54;57.38;;
77729;Laerm;68312;53.502;10.030;2023-05-29T01:11:08;41.95;36.42;57.71;;
77729;Laerm;68312;53.502;10.030;2023-05-29T01:13:38;39.45;36.10;47.36;;
77729;Laerm;68312;53.502;10.030;2023-05-29T01:16:33;41.23;36.25;55.48;;
77729;Laerm;68312;53.502;10.030;2023-05-29T01:26:45;37.45;34.31;41.76;;
77729;Laerm;68312;53.502;10.030;2023-05-29T01:29:19;38.51;35.37;42.50;;
77729;Laerm;68312;53.502;10.030;2023-05-29T01:31:46;37.90;35.09;43.18;;
77729;Laerm;68312;53.502;10.030;2023-05-29T01:34:12;38.72;34.81;46.62;;
77729;Laerm;68312;53.502;10.030;2023-05-29T01:36:38;38.18;34.87;42.80;;
77729;Laerm;68312;53.502;10.030;2023-05-29T01:39:05;36.77;33.34;48.96;;
77729;Laerm;68312;53.502;10.030;2023-05-29T01:41:32;36.27;33.34;41.34;;
77729;Laerm;68312;53.502;10.030;2023-05-29T01:44:02;36.53;33.06;43.00;;
77729;Laerm;68312;53.502;10.030;2023-05-29T01:46:28;36.19;32.76;43.78;;
77729;Laerm;68312;53.502;10.030;2023-05-29T01:48:53;38.44;33.77;50.38;;
77729;Laerm;68312;53.502;10.030;2023-05-29T01:51:19;36.89;33.19;46.36;;
77729;Laerm;68312;53.502;10.030;2023-05-29T01:53:45;37.95;34.08;47.66;;
77729;Laerm;68312;53.502;10.030;2023-05-29T01:56:10;38.28;34.02;47.46;;
77729;Laerm;68312;53.502;10.030;2023-05-29T01:58:38;38.00;33.93;47.95;;
77729;Laerm;68312;53.502;10.030;2023-05-29T02:01:06;38.74;34.32;45.17;;
77729;Laerm;68312;53.502;10.030;2023-05-29T02:03:34;38.86;34.71;48.24;;
77729;Laerm;68312;53.502;10.030;2023-05-29T02:06:00;40.73;35.25;52.81;;
77729;Laerm;68312;53.502;10.030;2023-05-29T02:08:27;53.93;36.60;71.35;;
77729;Laerm;68312;53.502;10.030;2023-05-29T02:10:53;56.12;37.00;72.49;;
77729;Laerm;68312;53.502;10.030;2023-05-29T02:13:19;56.35;36.46;71.53;;
77729;Laerm;68312;53.502;10.030;2023-05-29T02:15:44;56.24;37.37;72.04;;
77729;Laerm;68312;53.502;10.030;2023-05-29T02:18:15;43.26;35.82;53.35;;
77729;Laerm;68312;53.502;10.030;2023-05-29T02:20:41;43.64;36.33;52.94;;
77729;Laerm;68312;53.502;10.030;2023-05-29T02:23:10;45.66;36.84;53.11;;
77729;Laerm;68312;53.502;10.030;2023-05-29T02:25:35;45.57;37.74;55.92;;
77729;Laerm;68312;53.502;10.030;2023-05-29T02:28:02;46.38;37.67;59.99;;
77729;Laerm;68312;53.502;10.030;2023-05-29T02:30:30;55.92;37.66;73.38;;
77729;Laerm;68312;53.502;10.030;2023-05-29T02:32:55;55.39;38.54;73.29;;
77729;Laerm;68312;53.502;10.030;2023-05-29T02:35:21;45.50;37.46;55.72;;
77729;Laerm;68312;53.502;10.030;2023-05-29T02:37:47;45.05;37.45;59.84;;
77729;Laerm;68312;53.502;10.030;2023-05-29T02:40:12;44.94;37.54;55.12;;
77729;Laerm;68312;53.502;10.030;2023-05-29T02:42:40;45.13;37.39;56.41;;
77729;Laerm;68312;53.502;10.030;2023-05-29T02:45:07;43.51;35.54;55.32;;
77729;Laerm;68312;53.502;10.030;2023-05-29T02:47:32;43.55;35.60;56.70;;
77729;Laerm;68312;53.502;10.030;2023-05-29T02:49:58;43.96;36.43;53.79;;
77729;Laerm;68312;53.502;10.030;2023-05-29T02:52:23;42.37;36.15;51.31;;
77729;Laerm;68312;53.502;10.030;2023-05-29T02:54:49;42.80;36.61;56.35;;
77729;Laerm;68312;53.502;10.030;2023-05-29T02:57:15;43.30;35.33;65.44;;
77729;Laerm;68312;53.502;10.030;2023-05-29T02:59:40;42.19;35.41;55.79;;
77729;Laerm;68312;53.502;10.030;2023-05-29T03:02:06;41.43;37.20;54.32;;
77729;Laerm;68312;53.502;10.030;2023-05-29T03:04:31;43.13;36.48;55.73;;
77729;Laerm;68312;53.502;10.030;2023-05-29T03:06:57;41.55;35.75;53.54;;
77729;Laerm;68312;53.502;10.030;2023-05-29T03:09:23;40.84;35.93;53.04;;
77729;Laerm;68312;53.502;10.030;2023-05-29T03:11:49;42.32;35.83;55.00;;
77729;Laerm;68312;53.502;10.030;2023-05-29T03:14:15;42.41;35.80;56.58;;
77729;Laerm;68312;53.502;10.030;2023-05-29T03:16:40;41.32;36.34;54.07;;
77729;Laerm;68312;53.502;10.030;2023-05-29T03:19:07;40.96;35.11;53.60;;
77729;Laerm;68312;53.502;10.030;2023-05-29T03:21:33;41.97;35.87;57.91;;
77729;Laerm;68312;53.502;10.030;2023-05-29T03:23:59;42.16;35.93;53.67;;
77729;Laerm;68312;53.502;10.030;2023-05-29T03:26:25;40.85;35.55;51.95;;
77729;Laerm;68312;53.502;10.030;2023-05-29T03:28:50;39.89;35.20;50.72;;
77729;Laerm;68312;53.502;10.030;2023-05-29T03:31:16;40.07;35.57;51.98;;
77729;Laerm;68312;53.502;10.030;2023-05-29T03:33:41;40.81;36.38;51.79;;
77729;Laerm;68312;53.502;10.030;2023-05-29T03:36:07;41.45;36.96;52.79;;
77729;Laerm;68312;53.502;10.030;2023-05-29T03:38:33;40.57;36.44;51.74;;
77729;Laerm;68312;53.502;10.030;2023-05-29T03:40:58;40.20;35.78;53.23;;
77729;Laerm;68312;53.502;10.030;2023-05-29T03:43:24;41.20;36.25;51.41;;
77729;Laerm;68312;53.502;10.030;2023-05-29T03:45:49;41.71;36.01;53.04;;
77729;Laerm;68312;53.502;10.030;2023-05-29T03:48:15;41.30;35.34;49.61;;
77729;Laerm;68312;53.502;10.030;2023-05-29T03:50:40;40.72;36.08;50.95;;
77729;Laerm;68312;53.502;10.030;2023-05-29T03:53:06;39.92;35.16;48.82;;
77729;Laerm;68312;53.502;10.030;2023-05-29T03:55:31;42.15;36.65;56.94;;
77729;Laerm;68312;53.502;10.030;2023-05-29T03:57:57;40.99;36.29;51.97;;
77729;Laerm;68312;53.502;10.030;2023-05-29T04:00:23;39.82;35.44;52.17;;
77729;Laerm;68312;53.502;10.030;2023-05-29T04:02:48;42.07;36.50;55.04;;
77729;Laerm;68312;53.502;10.030;2023-05-29T04:05:14;44.15;37.33;62.36;;
77729;Laerm;68312;53.502;10.030;2023-05-29T04:07:39;41.76;35.77;58.38;;
77729;Laerm;68312;53.502;10.030;2023-05-29T04:10:06;42.63;37.26;57.77;;
77729;Laerm;68312;53.502;10.030;2023-05-29T04:12:33;41.81;35.82;63.23;;
77729;Laerm;68312;53.502;10.030;2023-05-29T04:14:59;41.46;36.61;57.27;;
77729;Laerm;68312;53.502;10.030;2023-05-29T04:17:24;41.64;36.95;57.28;;
77729;Laerm;68312;53.502;10.030;2023-05-29T04:19:50;41.27;36.20;58.23;;
77729;Laerm;68312;53.502;10.030;2023-05-29T04:22:16;40.72;36.00;52.99;;
77729;Laerm;68312;53.502;10.030;2023-05-29T04:24:41;39.91;34.97;49.73;;
77729;Laerm;68312;53.502;10.030;2023-05-29T04:27:10;42.46;36.43;52.63;;
77729;Laerm;68312;53.502;10.030;2023-05-29T04:29:36;42.48;37.30;55.92;;
77729;Laerm;68312;53.502;10.030;2023-05-29T04:32:02;42.51;38.05;54.35;;
77729;Laerm;68312;53.502;10.030;2023-05-29T04:34:27;42.50;37.38;54.10;;
77729;Laerm;68312;53.502;10.030;2023-05-29T04:36:53;41.04;36.18;54.42;;
77729;Laerm;68312;53.502;10.030;2023-05-29T04:39:18;40.18;36.06;47.98;;
77729;Laerm;68312;53.502;10.030;2023-05-29T04:41:43;40.04;35.93;53.68;;
77729;Laerm;68312;53.502;10.030;2023-05-29T04:44:12;40.05;35.60;54.47;;
77729;Laerm;68312;53.502;10.030;2023-05-29T04:46:37;39.66;35.78;52.98;;
77729;Laerm;68312;53.502;10.030;2023-05-29T04:49:03;41.11;36.09;61.40;;
77729;Laerm;68312;53.502;10.030;2023-05-29T04:51:28;40.17;36.42;49.20;;
77729;Laerm;68312;53.502;10.030;2023-05-29T04:53:54;42.47;36.31;57.25;;
77729;Laerm;68312;53.502;10.030;2023-05-29T04:56:19;42.09;35.69;54.96;;
77729;Laerm;68312;53.502;10.030;2023-05-29T04:58:45;39.43;35.72;52.46;;
77729;Laerm;68312;53.502;10.030;2023-05-29T05:01:10;41.61;36.40;55.13;;
77729;Laerm;68312;53.502;10.030;2023-05-29T05:03:36;42.78;36.37;54.26;;
77729;Laerm;68312;53.502;10.030;2023-05-29T05:06:02;41.33;35.51;56.47;;
77729;Laerm;68312;53.502;10.030;2023-05-29T05:08:29;42.59;36.83;56.61;;
77729;Laerm;68312;53.502;10.030;2023-05-29T05:10:55;41.79;37.21;56.60;;
77729;Laerm;68312;53.502;10.030;2023-05-29T05:13:20;40.70;36.32;53.78;;
77729;Laerm;68312;53.502;10.030;2023-05-29T05:15:45;40.21;36.20;53.74;;
77729;Laerm;68312;53.502;10.030;2023-05-29T05:18:11;41.93;37.62;53.95;;
77729;Laerm;68312;53.502;10.030;2023-05-29T05:20:36;41.68;37.25;56.61;;
77729;Laerm;68312;53.502;10.030;2023-05-29T05:23:02;43.05;37.96;57.88;;
77729;Laerm;68312;53.502;10.030;2023-05-29T05:25:27;42.37;37.14;53.46;;
77729;Laerm;68312;53.502;10.030;2023-05-29T05:27:53;42.99;37.80;56.04;;
77729;Laerm;68312;53.502;10.030;2023-05-29T05:30:19;42.43;38.13;52.32;;
77729;Laerm;68312;53.502;10.030;2023-05-29T05:32:44;42.65;37.26;53.15;;
77729;Laerm;68312;53.502;10.030;2023-05-29T05:35:10;41.64;37.20;55.07;;
77729;Laerm;68312;53.502;10.030;2023-05-29T05:37:35;44.37;37.55;66.00;;
77729;Laerm;68312;53.502;10.030;2023-05-29T05:40:01;43.49;37.73;57.21;;
77729;Laerm;68312;53.502;10.030;2023-05-29T05:42:26;43.66;38.10;64.28;;
77729;Laerm;68312;53.502;10.030;2023-05-29T05:44:52;44.81;38.11;61.04;;
77729;Laerm;68312;53.502;10.030;2023-05-29T05:47:18;43.94;36.83;66.61;;
77729;Laerm;68312;53.502;10.030;2023-05-29T05:49:43;43.92;36.47;67.11;;
77729;Laerm;68312;53.502;10.030;2023-05-29T05:52:09;41.97;36.06;57.88;;
77729;Laerm;68312;53.502;10.030;2023-05-29T05:54:34;41.10;36.59;55.00;;
77729;Laerm;68312;53.502;10.030;2023-05-29T05:57:00;42.12;34.99;64.88;;
77729;Laerm;68312;53.502;10.030;2023-05-29T05:59:26;40.07;35.40;49.48;;
77729;Laerm;68312;53.502;10.030;2023-05-29T06:01:51;44.74;36.08;70.25;;
77729;Laerm;68312;53.502;10.030;2023-05-29T06:04:17;42.56;35.73;53.65;;
77729;Laerm;68312;53.502;10.030;2023-05-29T06:06:42;39.17;35.53;53.77;;
77729;Laerm;68312;53.502;10.030;2023-05-29T06:09:08;41.51;35.60;54.83;;
77729;Laerm;68312;53.502;10.030;2023-05-29T06:11:33;42.39;37.04;60.82;;
77729;Laerm;68312;53.502;10.030;2023-05-29T06:13:59;41.64;35.83;55.23;;
77729;Laerm;68312;53.502;10.030;2023-05-29T06:16:25;43.04;36.29;59.17;;
77729;Laerm;68312;53.502;10.030;2023-05-29T06:18:50;38.79;35.67;46.94;;
77729;Laerm;68312;53.502;10.030;2023-05-29T06:21:16;40.16;35.88;55.25;;
77729;Laerm;68312;53.502;10.030;2023-05-29T06:23:41;40.18;34.82;53.86;;
77729;Laerm;68312;53.502;10.030;2023-05-29T06:26:07;42.32;37.06;63.86;;
77729;Laerm;68312;53.502;10.030;2023-05-29T06:28:32;43.38;36.07;59.68;;
77729;Laerm;68312;53.502;10.030;2023-05-29T06:30:58;49.88;36.08;69.52;;
77729;Laerm;68312;53.502;10.030;2023-05-29T06:33:23;41.98;35.86;54.16;;
77729;Laerm;68312;53.502;10.030;2023-05-29T06:35:49;40.61;35.88;52.63;;
77729;Laerm;68312;53.502;10.030;2023-05-29T06:38:15;41.32;35.93;54.45;;
77729;Laerm;68312;53.502;10.030;2023-05-29T06:40:40;41.84;35.43;60.78;;
77729;Laerm;68312;53.502;10.030;2023-05-29T06:43:06;40.87;35.53;52.22;;
77729;Laerm;68312;53.502;10.030;2023-05-29T06:45:31;42.99;35.36;62.18;;
77729;Laerm;68312;53.502;10.030;2023-05-29T06:47:57;42.60;36.16;60.74;;
77729;Laerm;68312;53.502;10.030;2023-05-29T06:50:22;41.51;35.58;56.76;;
77729;Laerm;68312;53.502;10.030;2023-05-29T06:52:48;42.60;35.27;55.06;;
77729;Laerm;68312;53.502;10.030;2023-05-29T06:55:13;41.19;34.25;52.75;;
77729;Laerm;68312;53.502;10.030;2023-05-29T06:57:39;39.70;34.25;51.33;;
77729;Laerm;68312;53.502;10.030;2023-05-29T07:00:06;41.52;34.28;59.17;;
77729;Laerm;68312;53.502;10.030;2023-05-29T07:02:32;42.70;34.97;59.86;;
77729;Laerm;68312;53.502;10.030;2023-05-29T07:04:57;42.96;35.21;59.89;;
77729;Laerm;68312;53.502;10.030;2023-05-29T07:07:26;45.56;36.87;59.52;;
77729;Laerm;68312;53.502;10.030;2023-05-29T07:09:51;41.66;35.80;61.16;;
77729;Laerm;68312;53.502;10.030;2023-05-29T07:12:17;42.19;35.42;54.40;;
77729;Laerm;68312;53.502;10.030;2023-05-29T07:14:42;43.84;37.04;62.22;;
77729;Laerm;68312;53.502;10.030;2023-05-29T07:17:08;43.23;35.54;63.60;;
77729;Laerm;68312;53.502;10.030;2023-05-29T07:19:33;42.59;35.30;55.36;;
77729;Laerm;68312;53.502;10.030;2023-05-29T07:21:59;44.47;37.39;61.02;;
77729;Laerm;68312;53.502;10.030;2023-05-29T07:24:24;42.81;36.94;66.43;;
77729;Laerm;68312;53.502;10.030;2023-05-29T07:26:50;41.06;36.90;52.65;;
77729;Laerm;68312;53.502;10.030;2023-05-29T07:29:16;42.83;37.09;62.94;;
77729;Laerm;68312;53.502;10.030;2023-05-29T07:31:42;43.37;37.20;71.82;;
77729;Laerm;68312;53.502;10.030;2023-05-29T07:34:07;41.98;37.11;60.61;;
77729;Laerm;68312;53.502;10.030;2023-05-29T07:36:36;44.19;37.74;60.61;;
77729;Laerm;68312;53.502;10.030;2023-05-29T07:39:02;44.33;38.01;57.94;;
77729;Laerm;68312;53.502;10.030;2023-05-29T07:41:30;43.53;38.06;58.28;;
77729;Laerm;68312;53.502;10.030;2023-05-29T07:43:56;42.37;37.84;58.58;;
77729;Laerm;68312;53.502;10.030;2023-05-29T07:46:21;40.97;36.78;51.87;;
77729;Laerm;68312;53.502;10.030;2023-05-29T07:48:47;43.33;36.96;66.56;;
77729;Laerm;68312;53.502;10.030;2023-05-29T07:51:12;42.65;36.98;62.06;;
77729;Laerm;68312;53.502;10.030;2023-05-29T07:53:38;43.34;37.34;63.98;;
77729;Laerm;68312;53.502;10.030;2023-05-29T07:56:04;45.38;36.98;68.63;;
77729;Laerm;68312;53.502;10.030;2023-05-29T07:58:32;41.43;36.69;55.08;;
77729;Laerm;68312;53.502;10.030;2023-05-29T08:00:57;40.49;37.19;49.60;;
77729;Laerm;68312;53.502;10.030;2023-05-29T08:03:23;42.83;37.24;57.78;;
77729;Laerm;68312;53.502;10.030;2023-05-29T08:05:48;41.98;36.86;53.29;;
77729;Laerm;68312;53.502;10.030;2023-05-29T08:08:14;42.63;37.13;64.21;;
77729;Laerm;68312;53.502;10.030;2023-05-29T08:10:39;41.34;36.42;59.37;;
77729;Laerm;68312;53.502;10.030;2023-05-29T08:13:05;39.70;35.87;48.39;;
77729;Laerm;68312;53.502;10.030;2023-05-29T08:15:30;42.31;37.26;60.66;;
77729;Laerm;68312;53.502;10.030;2023-05-29T08:17:56;41.66;35.44;62.93;;
77729;Laerm;68312;53.502;10.030;2023-05-29T08:20:21;41.34;36.21;54.10;;
77729;Laerm;68312;53.502;10.030;2023-05-29T08:22:46;42.52;37.35;55.25;;
77729;Laerm;68312;53.502;10.030;2023-05-29T08:25:12;43.77;38.19;57.67;;
77729;Laerm;68312;53.502;10.030;2023-05-29T08:27:37;40.84;36.55;53.02;;
77729;Laerm;68312;53.502;10.030;2023-05-29T08:30:04;41.67;36.35;53.98;;
77729;Laerm;68312;53.502;10.030;2023-05-29T08:32:29;42.52;36.04;57.18;;
77729;Laerm;68312;53.502;10.030;2023-05-29T08:34:55;42.73;37.01;59.47;;
77729;Laerm;68312;53.502;10.030;2023-05-29T08:37:20;52.33;37.46;78.35;;
77729;Laerm;68312;53.502;10.030;2023-05-29T08:39:46;39.59;36.12;47.06;;
77729;Laerm;68312;53.502;10.030;2023-05-29T08:42:29;42.11;37.07;57.64;;
77729;Laerm;68312;53.502;10.030;2023-05-29T08:44:56;43.39;38.22;59.44;;
77729;Laerm;68312;53.502;10.030;2023-05-29T08:47:26;41.82;36.32;63.56;;
77729;Laerm;68312;53.502;10.030;2023-05-29T08:49:54;43.60;36.31;66.46;;
77729;Laerm;68312;53.502;10.030;2023-05-29T08:52:23;43.10;36.21;65.99;;
77729;Laerm;68312;53.502;10.030;2023-05-29T08:54:49;41.84;37.02;61.53;;
77729;Laerm;68312;53.502;10.030;2023-05-29T08:57:14;43.53;36.89;56.45;;
77729;Laerm;68312;53.502;10.030;2023-05-29T08:59:44;43.06;36.94;68.55;;
77729;Laerm;68312;53.502;10.030;2023-05-29T09:02:11;39.17;34.84;49.17;;
77729;Laerm;68312;53.502;10.030;2023-05-29T09:04:36;42.78;35.56;56.41;;
77729;Laerm;68312;53.502;10.030;2023-05-29T09:07:02;41.68;36.39;62.97;;
77729;Laerm;68312;53.502;10.030;2023-05-29T09:09:27;48.66;37.18;77.10;;
77729;Laerm;68312;53.502;10.030;2023-05-29T09:11:53;41.91;35.78;62.47;;
77729;Laerm;68312;53.502;10.030;2023-05-29T09:17:04;40.57;36.22;52.72;;
77729;Laerm;68312;53.502;10.030;2023-05-29T09:19:31;43.44;35.39;66.27;;
77729;Laerm;68312;53.502;10.030;2023-05-29T09:22:05;39.14;34.89;50.42;;
77729;Laerm;68312;53.502;10.030;2023-05-29T09:24:36;43.26;36.42;55.87;;
77729;Laerm;68312;53.502;10.030;2023-05-29T09:27:03;39.98;36.02;49.29;;
77729;Laerm;68312;53.502;10.030;2023-05-29T09:29:32;41.06;36.33;53.23;;
77729;Laerm;68312;53.502;10.030;2023-05-29T09:31:57;42.63;35.76;55.69;;
77729;Laerm;68312;53.502;10.030;2023-05-29T09:34:24;45.98;35.00;62.23;;
77729;Laerm;68312;53.502;10.030;2023-05-29T09:36:50;50.42;37.14;62.10;;
77729;Laerm;68312;53.502;10.030;2023-05-29T09:39:16;52.67;36.44;63.30;;
77729;Laerm;68312;53.502;10.030;2023-05-29T09:41:43;56.65;36.07;65.27;;
77729;Laerm;68312;53.502;10.030;2023-05-29T09:44:15;55.30;35.01;64.48;;
77729;Laerm;68312;53.502;10.030;2023-05-29T09:46:42;55.27;36.56;64.21;;
77729;Laerm;68312;53.502;10.030;2023-05-29T09:49:13;53.48;36.90;68.53;;
77729;Laerm;68312;53.502;10.030;2023-05-29T09:51:39;46.02;37.09;58.49;;
77729;Laerm;68312;53.502;10.030;2023-05-29T09:54:18;54.97;38.63;65.55;;
77729;Laerm;68312;53.502;10.030;2023-05-29T09:56:45;52.27;37.32;64.16;;
77729;Laerm;68312;53.502;10.030;2023-05-29T09:59:15;56.42;36.37;63.65;;
77729;Laerm;68312;53.502;10.030;2023-05-29T10:01:44;39.75;34.77;53.67;;
77729;Laerm;68312;53.502;10.030;2023-05-29T10:04:11;41.64;34.84;54.29;;
77729;Laerm;68312;53.502;10.030;2023-05-29T10:06:41;41.62;36.58;53.13;;
77729;Laerm;68312;53.502;10.030;2023-05-29T10:09:12;45.03;37.06;63.71;;
77729;Laerm;68312;53.502;10.030;2023-05-29T10:11:43;42.32;37.58;56.08;;
77729;Laerm;68312;53.502;10.030;2023-05-29T10:14:18;41.06;36.84;57.82;;
77729;Laerm;68312;53.502;10.030;2023-05-29T10:16:47;43.98;37.18;58.33;;
77729;Laerm;68312;53.502;10.030;2023-05-29T10:19:25;42.44;35.82;54.47;;
77729;Laerm;68312;53.502;10.030;2023-05-29T10:21:53;41.69;36.18;54.16;;
77729;Laerm;68312;53.502;10.030;2023-05-29T10:24:20;42.71;36.65;59.19;;
77729;Laerm;68312;53.502;10.030;2023-05-29T10:26:49;40.82;36.54;50.73;;
77729;Laerm;68312;53.502;10.030;2023-05-29T10:32:23;41.16;36.55;60.37;;
77729;Laerm;68312;53.502;10.030;2023-05-29T10:35:18;41.36;35.65;56.29;;
77729;Laerm;68312;53.502;10.030;2023-05-29T10:38:11;40.83;34.93;55.36;;
77729;Laerm;68312;53.502;10.030;2023-05-29T10:40:37;40.52;35.36;52.75;;
77729;Laerm;68312;53.502;10.030;2023-05-29T10:43:02;41.15;36.26;51.93;;
77729;Laerm;68312;53.502;10.030;2023-05-29T10:47:53;41.89;35.62;51.17;;
77729;Laerm;68312;53.502;10.030;2023-05-29T10:50:48;40.46;35.28;57.00;;
77729;Laerm;68312;53.502;10.030;2023-05-29T10:53:24;41.69;36.15;56.87;;
77729;Laerm;68312;53.502;10.030;2023-05-29T10:55:50;43.52;37.66;60.95;;
77729;Laerm;68312;53.502;10.030;2023-05-29T10:58:23;44.36;36.16;62.67;;
77729;Laerm;68312;53.502;10.030;2023-05-29T11:00:50;43.37;37.47;52.90;;
77729;Laerm;68312;53.502;10.030;2023-05-29T11:03:39;51.41;37.58;75.21;;
77729;Laerm;68312;53.502;10.030;2023-05-29T11:06:18;51.52;37.69;68.76;;
77729;Laerm;68312;53.502;10.030;2023-05-29T11:08:56;48.64;37.09;78.66;;
77729;Laerm;68312;53.502;10.030;2023-05-29T11:13:56;51.14;38.54;72.55;;
77729;Laerm;68312;53.502;10.030;2023-05-29T11:18:54;71.59;36.28;102.72;;
77729;Laerm;68312;53.502;10.030;2023-05-29T11:24:22;48.58;35.91;74.45;;
77729;Laerm;68312;53.502;10.030;2023-05-29T11:26:52;43.07;35.09;62.61;;
77729;Laerm;68312;53.502;10.030;2023-05-29T11:29:28;43.16;35.50;61.97;;
77729;Laerm;68312;53.502;10.030;2023-05-29T11:32:06;42.78;36.83;59.08;;
77729;Laerm;68312;53.502;10.030;2023-05-29T11:34:33;41.86;35.60;56.66;;
77729;Laerm;68312;53.502;10.030;2023-05-29T11:37:00;42.13;35.78;57.72;;
77729;Laerm;68312;53.502;10.030;2023-05-29T11:39:27;41.63;34.60;57.36;;
77729;Laerm;68312;53.502;10.030;2023-05-29T11:41:54;40.38;33.96;54.95;;
77729;Laerm;68312;53.502;10.030;2023-05-29T11:44:21;45.54;35.24;69.00;;
77729;Laerm;68312;53.502;10.030;2023-05-29T11:47:03;42.96;34.28;65.78;;
77729;Laerm;68312;53.502;10.030;2023-05-29T11:49:34;44.32;34.43;62.16;;
77729;Laerm;68312;53.502;10.030;2023-05-29T11:52:13;41.76;35.86;55.69;;
77729;Laerm;68312;53.502;10.030;2023-05-29T11:54:38;41.67;36.43;63.25;;
77729;Laerm;68312;53.502;10.030;2023-05-29T11:57:04;45.43;36.40;69.78;;
77729;Laerm;68312;53.502;10.030;2023-05-29T11:59:31;43.39;34.62;57.37;;
77729;Laerm;68312;53.502;10.030;2023-05-29T12:01:56;42.96;35.20;67.48;;
77729;Laerm;68312;53.502;10.030;2023-05-29T12:04:22;41.10;35.54;58.74;;
77729;Laerm;68312;53.502;10.030;2023-05-29T12:06:47;46.10;35.55;68.42;;
77729;Laerm;68312;53.502;10.030;2023-05-29T12:09:27;54.62;36.09;80.91;;
77729;Laerm;68312;53.502;10.030;2023-05-29T12:12:01;67.80;36.05;91.31;;
77729;Laerm;68312;53.502;10.030;2023-05-29T12:14:27;42.60;35.03;63.01;;
77729;Laerm;68312;53.502;10.030;2023-05-29T12:16:52;38.18;33.98;57.25;;
77729;Laerm;68312;53.502;10.030;2023-05-29T12:19:24;37.08;33.62;53.58;;
77729;Laerm;68312;53.502;10.030;2023-05-29T12:21:49;41.27;33.59;54.02;;
77729;Laerm;68312;53.502;10.030;2023-05-29T12:24:15;38.74;34.72;49.18;;
77729;Laerm;68312;53.502;10.030;2023-05-29T12:26:42;39.73;34.76;56.95;;
77729;Laerm;68312;53.502;10.030;2023-05-29T12:29:08;40.47;35.23;58.33;;
77729;Laerm;68312;53.502;10.030;2023-05-29T12:31:33;47.39;37.06;72.30;;
77729;Laerm;68312;53.502;10.030;2023-05-29T12:34:07;39.96;35.99;53.69;;
77729;Laerm;68312;53.502;10.030;2023-05-29T12:36:33;39.88;36.14;54.44;;
77729;Laerm;68312;53.502;10.030;2023-05-29T12:38:58;41.70;36.33;57.96;;
77729;Laerm;68312;53.502;10.030;2023-05-29T12:41:32;39.01;34.74;51.36;;
77729;Laerm;68312;53.502;10.030;2023-05-29T12:44:04;42.93;35.55;60.82;;
77729;Laerm;68312;53.502;10.030;2023-05-29T12:46:38;40.03;35.38;57.14;;
77729;Laerm;68312;53.502;10.030;2023-05-29T12:49:18;41.35;35.47;60.15;;
77729;Laerm;68312;53.502;10.030;2023-05-29T12:51:45;45.30;35.69;64.93;;
77729;Laerm;68312;53.502;10.030;2023-05-29T12:54:13;42.12;36.95;62.62;;
77729;Laerm;68312;53.502;10.030;2023-05-29T12:56:40;41.25;35.36;55.94;;
77729;Laerm;68312;53.502;10.030;2023-05-29T12:59:10;44.04;34.75;58.99;;
77729;Laerm;68312;53.502;10.030;2023-05-29T13:01:38;39.27;34.33;54.94;;
77729;Laerm;68312;53.502;10.030;2023-05-29T13:04:05;42.01;34.51;57.78;;
77729;Laerm;68312;53.502;10.030;2023-05-29T13:06:30;40.10;36.04;58.75;;
77729;Laerm;68312;53.502;10.030;2023-05-29T13:08:56;40.47;35.57;53.56;;
77729;Laerm;68312;53.502;10.030;2023-05-29T13:11:22;44.43;35.15;61.45;;
77729;Laerm;68312;53.502;10.030;2023-05-29T13:13:47;40.52;34.33;57.05;;
77729;Laerm;68312;53.502;10.030;2023-05-29T13:16:13;41.52;35.08;59.97;;
77729;Laerm;68312;53.502;10.030;2023-05-29T13:18:41;41.14;34.86;58.32;;
77729;Laerm;68312;53.502;10.030;2023-05-29T13:21:06;42.35;35.28;60.05;;
77729;Laerm;68312;53.502;10.030;2023-05-29T13:23:32;40.74;35.14;58.22;;
77729;Laerm;68312;53.502;10.030;2023-05-29T13:25:57;44.11;35.57;63.01;;
77729;Laerm;68312;53.502;10.030;2023-05-29T13:28:23;43.43;35.32;63.18;;
77729;Laerm;68312;53.502;10.030;2023-05-29T13:30:48;38.92;34.53;53.43;;
77729;Laerm;68312;53.502;10.030;2023-05-29T13:33:14;39.55;34.62;53.84;;
77729;Laerm;68312;53.502;10.030;2023-05-29T13:35:39;43.44;35.55;61.35;;
77729;Laerm;68312;53.502;10.030;2023-05-29T13:38:05;42.27;36.79;58.95;;
77729;Laerm;68312;53.502;10.030;2023-05-29T13:40:30;40.48;36.29;55.44;;
77729;Laerm;68312;53.502;10.030;2023-05-29T13:42:56;44.15;37.09;65.58;;
77729;Laerm;68312;53.502;10.030;2023-05-29T13:45:21;40.65;36.00;52.13;;
77729;Laerm;68312;53.502;10.030;2023-05-29T13:47:47;41.57;34.15;57.93;;
77729;Laerm;68312;53.502;10.030;2023-05-29T13:50:12;40.39;34.19;56.39;;
77729;Laerm;68312;53.502;10.030;2023-05-29T13:52:38;54.36;36.25;80.79;;
77729;Laerm;68312;53.502;10.030;2023-05-29T13:55:04;47.49;35.60;70.70;;